sensor_id;sensor_type;location;lat;lon;timestamp;P1;durP1;ratioP1;P2;durP2;ratioP2
54823;SDS011;40724;53.196;5.980;2024-01-10T00:01:45;8.48;;;5.32;;
54823;SDS011;40724;53.196;5.980;2024-01-10T00:04:11;9.65;;;5.95;;
54823;SDS011;40724;53.196;5.980;2024-01-10T00:06:38;8.45;;;5.05;;
54823;SDS011;40724;53.196;5.980;2024-01-10T00:09:04;10.02;;;6.47;;
54823;SDS011;40724;53.196;5.980;2024-01-10T00:11:30;8.30;;;5.03;;
54823;SDS011;40724;53.196;5.980;2024-01-10T00:13:56;9.73;;;5.78;;
54823;SDS011;40724;53.196;5.980;2024-01-10T00:16:25;7.22;;;5.80;;
54823;SDS011;40724;53.196;5.980;2024-01-10T00:18:57;10.27;;;5.57;;
54823;SDS011;40724;53.196;5.980;2024-01-10T00:21:23;8.48;;;6.10;;
54823;SDS011;40724;53.196;5.980;2024-01-10T00:23:49;10.18;;;6.65;;
54823;SDS011;40724;53.196;5.980;2024-01-10T00:26:15;14.60;;;6.68;;
54823;SDS011;40724;53.196;5.980;2024-01-10T00:28:42;8.10;;;6.13;;
54823;SDS011;40724;53.196;5.980;2024-01-10T00:31:11;11.07;;;6.32;;
54823;SDS011;40724;53.196;5.980;2024-01-10T00:33:37;10.77;;;6.50;;
54823;SDS011;40724;53.196;5.980;2024-01-10T00:36:03;10.48;;;6.65;;
54823;SDS011;40724;53.196;5.980;2024-01-10T00:38:29;9.73;;;6.40;;
54823;SDS011;40724;53.196;5.980;2024-01-10T00:40:55;9.13;;;7.15;;
54823;SDS011;40724;53.196;5.980;2024-01-10T00:43:21;9.07;;;6.25;;
54823;SDS011;40724;53.196;5.980;2024-01-10T00:45:47;10.20;;;6.90;;
54823;SDS011;40724;53.196;5.980;2024-01-10T00:48:13;10.70;;;7.97;;
54823;SDS011;40724;53.196;5.980;2024-01-10T00:50:40;10.52;;;7.15;;
54823;SDS011;40724;53.196;5.980;2024-01-10T00:53:06;12.90;;;7.65;;
54823;SDS011;40724;53.196;5.980;2024-01-10T00:55:32;10.63;;;7.72;;
54823;SDS011;40724;53.196;5.980;2024-01-10T00:57:58;11.50;;;8.18;;
54823;SDS011;40724;53.196;5.980;2024-01-10T01:00:24;10.63;;;6.90;;
54823;SDS011;40724;53.196;5.980;2024-01-10T01:02:51;11.32;;;7.53;;
54823;SDS011;40724;53.196;5.980;2024-01-10T01:05:17;10.13;;;7.57;;
54823;SDS011;40724;53.196;5.980;2024-01-10T01:07:43;12.30;;;8.07;;
54823;SDS011;40724;53.196;5.980;2024-01-10T01:10:10;13.20;;;7.95;;
54823;SDS011;40724;53.196;5.980;2024-01-10T01:12:36;10.18;;;7.28;;
54823;SDS011;40724;53.196;5.980;2024-01-10T01:15:02;12.07;;;7.82;;
54823;SDS011;40724;53.196;5.980;2024-01-10T01:17:29;11.30;;;8.32;;
54823;SDS011;40724;53.196;5.980;2024-01-10T01:19:55;10.25;;;6.80;;
54823;SDS011;40724;53.196;5.980;2024-01-10T01:22:21;12.45;;;7.85;;
54823;SDS011;40724;53.196;5.980;2024-01-10T01:24:47;12.95;;;8.45;;
54823;SDS011;40724;53.196;5.980;2024-01-10T01:27:13;12.60;;;8.13;;
54823;SDS011;40724;53.196;5.980;2024-01-10T01:29:39;13.43;;;8.32;;
54823;SDS011;40724;53.196;5.980;2024-01-10T01:32:05;10.13;;;7.70;;
54823;SDS011;40724;53.196;5.980;2024-01-10T01:34:31;10.48;;;7.57;;
54823;SDS011;40724;53.196;5.980;2024-01-10T01:36:58;12.88;;;8.50;;
54823;SDS011;40724;53.196;5.980;2024-01-10T01:39:24;13.30;;;9.13;;
54823;SDS011;40724;53.196;5.980;2024-01-10T01:41:50;10.63;;;8.23;;
54823;SDS011;40724;53.196;5.980;2024-01-10T01:44:16;10.93;;;7.60;;
54823;SDS011;40724;53.196;5.980;2024-01-10T01:46:42;12.10;;;7.95;;
54823;SDS011;40724;53.196;5.980;2024-01-10T01:49:09;13.70;;;8.10;;
54823;SDS011;40724;53.196;5.980;2024-01-10T01:51:36;12.57;;;8.27;;
54823;SDS011;40724;53.196;5.980;2024-01-10T01:54:05;15.32;;;8.60;;
54823;SDS011;40724;53.196;5.980;2024-01-10T01:56:33;10.75;;;7.68;;
54823;SDS011;40724;53.196;5.980;2024-01-10T01:58:59;12.85;;;8.68;;
54823;SDS011;40724;53.196;5.980;2024-01-10T02:01:25;14.40;;;9.35;;
54823;SDS011;40724;53.196;5.980;2024-01-10T02:03:52;14.65;;;8.98;;
54823;SDS011;40724;53.196;5.980;2024-01-10T02:06:18;16.35;;;8.93;;
54823;SDS011;40724;53.196;5.980;2024-01-10T02:08:44;16.75;;;9.13;;
54823;SDS011;40724;53.196;5.980;2024-01-10T02:11:11;14.55;;;10.43;;
54823;SDS011;40724;53.196;5.980;2024-01-10T02:13:37;13.48;;;8.52;;
54823;SDS011;40724;53.196;5.980;2024-01-10T02:16:03;11.93;;;8.77;;
54823;SDS011;40724;53.196;5.980;2024-01-10T02:18:30;10.50;;;8.30;;
54823;SDS011;40724;53.196;5.980;2024-01-10T02:20:56;13.93;;;9.65;;
54823;SDS011;40724;53.196;5.980;2024-01-10T02:23:23;13.27;;;9.70;;
54823;SDS011;40724;53.196;5.980;2024-01-10T02:25:49;13.27;;;8.43;;
54823;SDS011;40724;53.196;5.980;2024-01-10T02:28:15;14.75;;;9.48;;
54823;SDS011;40724;53.196;5.980;2024-01-10T02:30:41;14.93;;;10.30;;
54823;SDS011;40724;53.196;5.980;2024-01-10T02:33:07;17.15;;;10.55;;
54823;SDS011;40724;53.196;5.980;2024-01-10T02:35:34;15.50;;;9.93;;
54823;SDS011;40724;53.196;5.980;2024-01-10T02:38:00;16.75;;;9.68;;
54823;SDS011;40724;53.196;5.980;2024-01-10T02:40:26;16.00;;;9.80;;
54823;SDS011;40724;53.196;5.980;2024-01-10T02:42:52;13.50;;;9.48;;
54823;SDS011;40724;53.196;5.980;2024-01-10T02:45:18;12.52;;;8.85;;
54823;SDS011;40724;53.196;5.980;2024-01-10T02:47:45;15.15;;;10.20;;
54823;SDS011;40724;53.196;5.980;2024-01-10T02:50:11;16.45;;;9.93;;
54823;SDS011;40724;53.196;5.980;2024-01-10T02:52:37;15.68;;;9.88;;
54823;SDS011;40724;53.196;5.980;2024-01-10T02:55:03;15.15;;;10.30;;
54823;SDS011;40724;53.196;5.980;2024-01-10T02:57:30;13.45;;;9.30;;
54823;SDS011;40724;53.196;5.980;2024-01-10T02:59:56;19.60;;;11.68;;
54823;SDS011;40724;53.196;5.980;2024-01-10T03:02:22;15.55;;;10.90;;
54823;SDS011;40724;53.196;5.980;2024-01-10T03:04:48;16.77;;;10.50;;
54823;SDS011;40724;53.196;5.980;2024-01-10T03:07:15;16.30;;;10.40;;
54823;SDS011;40724;53.196;5.980;2024-01-10T03:09:41;14.23;;;11.43;;
54823;SDS011;40724;53.196;5.980;2024-01-10T03:12:09;17.27;;;11.63;;
54823;SDS011;40724;53.196;5.980;2024-01-10T03:14:38;13.60;;;10.20;;
54823;SDS011;40724;53.196;5.980;2024-01-10T03:17:04;14.48;;;10.02;;
54823;SDS011;40724;53.196;5.980;2024-01-10T03:19:30;14.88;;;11.20;;
54823;SDS011;40724;53.196;5.980;2024-01-10T03:21:56;17.17;;;11.48;;
54823;SDS011;40724;53.196;5.980;2024-01-10T03:24:22;17.30;;;11.38;;
54823;SDS011;40724;53.196;5.980;2024-01-10T03:26:51;17.13;;;11.05;;
54823;SDS011;40724;53.196;5.980;2024-01-10T03:29:17;17.65;;;11.73;;
54823;SDS011;40724;53.196;5.980;2024-01-10T03:31:44;16.10;;;10.57;;
54823;SDS011;40724;53.196;5.980;2024-01-10T03:34:10;18.15;;;12.35;;
54823;SDS011;40724;53.196;5.980;2024-01-10T03:36:36;15.45;;;10.82;;
54823;SDS011;40724;53.196;5.980;2024-01-10T03:39:02;14.75;;;9.88;;
54823;SDS011;40724;53.196;5.980;2024-01-10T03:41:28;15.55;;;9.85;;
54823;SDS011;40724;53.196;5.980;2024-01-10T03:43:54;16.83;;;11.30;;
54823;SDS011;40724;53.196;5.980;2024-01-10T03:46:20;14.27;;;10.43;;
54823;SDS011;40724;53.196;5.980;2024-01-10T03:48:47;13.45;;;9.60;;
54823;SDS011;40724;53.196;5.980;2024-01-10T03:51:14;14.20;;;10.15;;
54823;SDS011;40724;53.196;5.980;2024-01-10T03:53:40;17.17;;;10.15;;
54823;SDS011;40724;53.196;5.980;2024-01-10T03:56:06;14.13;;;10.68;;
54823;SDS011;40724;53.196;5.980;2024-01-10T03:58:33;14.80;;;9.77;;
54823;SDS011;40724;53.196;5.980;2024-01-10T04:00:59;18.85;;;11.73;;
54823;SDS011;40724;53.196;5.980;2024-01-10T04:03:25;16.00;;;11.20;;
54823;SDS011;40724;53.196;5.980;2024-01-10T04:05:51;14.98;;;10.63;;
54823;SDS011;40724;53.196;5.980;2024-01-10T04:08:17;13.27;;;10.02;;
54823;SDS011;40724;53.196;5.980;2024-01-10T04:10:43;12.20;;;9.65;;
54823;SDS011;40724;53.196;5.980;2024-01-10T04:13:09;13.52;;;9.98;;
54823;SDS011;40724;53.196;5.980;2024-01-10T04:15:36;12.27;;;9.15;;
54823;SDS011;40724;53.196;5.980;2024-01-10T04:18:02;16.38;;;10.00;;
54823;SDS011;40724;53.196;5.980;2024-01-10T04:20:29;13.02;;;10.00;;
54823;SDS011;40724;53.196;5.980;2024-01-10T04:22:55;12.82;;;9.93;;
54823;SDS011;40724;53.196;5.980;2024-01-10T04:25:21;15.52;;;10.75;;
54823;SDS011;40724;53.196;5.980;2024-01-10T04:27:47;19.27;;;11.20;;
54823;SDS011;40724;53.196;5.980;2024-01-10T04:30:15;16.63;;;11.88;;
54823;SDS011;40724;53.196;5.980;2024-01-10T04:32:41;15.70;;;10.13;;
54823;SDS011;40724;53.196;5.980;2024-01-10T04:35:14;14.55;;;10.07;;
54823;SDS011;40724;53.196;5.980;2024-01-10T04:37:40;13.60;;;10.45;;
54823;SDS011;40724;53.196;5.980;2024-01-10T04:40:06;11.77;;;9.60;;
54823;SDS011;40724;53.196;5.980;2024-01-10T04:42:32;14.32;;;10.43;;
54823;SDS011;40724;53.196;5.980;2024-01-10T04:44:58;13.40;;;9.70;;
54823;SDS011;40724;53.196;5.980;2024-01-10T04:47:25;15.85;;;10.77;;
54823;SDS011;40724;53.196;5.980;2024-01-10T04:49:51;12.27;;;8.68;;
54823;SDS011;40724;53.196;5.980;2024-01-10T04:52:17;12.90;;;8.90;;
54823;SDS011;40724;53.196;5.980;2024-01-10T04:54:43;14.57;;;8.90;;
54823;SDS011;40724;53.196;5.980;2024-01-10T04:57:09;12.45;;;9.45;;
54823;SDS011;40724;53.196;5.980;2024-01-10T04:59:36;12.55;;;9.05;;
54823;SDS011;40724;53.196;5.980;2024-01-10T05:02:02;16.65;;;10.20;;
54823;SDS011;40724;53.196;5.980;2024-01-10T05:04:28;12.55;;;8.73;;
54823;SDS011;40724;53.196;5.980;2024-01-10T05:06:54;17.13;;;10.20;;
54823;SDS011;40724;53.196;5.980;2024-01-10T05:09:20;14.77;;;9.00;;
54823;SDS011;40724;53.196;5.980;2024-01-10T05:11:46;16.08;;;9.98;;
54823;SDS011;40724;53.196;5.980;2024-01-10T05:14:15;17.25;;;9.93;;
54823;SDS011;40724;53.196;5.980;2024-01-10T05:16:42;15.05;;;10.07;;
54823;SDS011;40724;53.196;5.980;2024-01-10T05:19:08;14.70;;;9.93;;
54823;SDS011;40724;53.196;5.980;2024-01-10T05:21:34;15.55;;;9.98;;
54823;SDS011;40724;53.196;5.980;2024-01-10T05:24:00;18.95;;;9.60;;
54823;SDS011;40724;53.196;5.980;2024-01-10T05:26:26;16.13;;;10.70;;
54823;SDS011;40724;53.196;5.980;2024-01-10T05:28:52;12.57;;;8.82;;
54823;SDS011;40724;53.196;5.980;2024-01-10T05:31:18;14.80;;;9.43;;
54823;SDS011;40724;53.196;5.980;2024-01-10T05:33:45;14.55;;;9.48;;
54823;SDS011;40724;53.196;5.980;2024-01-10T05:36:11;14.55;;;10.20;;
54823;SDS011;40724;53.196;5.980;2024-01-10T05:38:37;13.23;;;9.05;;
54823;SDS011;40724;53.196;5.980;2024-01-10T05:41:05;16.95;;;10.35;;
54823;SDS011;40724;53.196;5.980;2024-01-10T05:43:31;17.70;;;11.68;;
54823;SDS011;40724;53.196;5.980;2024-01-10T05:45:57;15.30;;;9.93;;
54823;SDS011;40724;53.196;5.980;2024-01-10T05:48:24;16.08;;;11.75;;
54823;SDS011;40724;53.196;5.980;2024-01-10T05:50:50;15.77;;;10.13;;
54823;SDS011;40724;53.196;5.980;2024-01-10T05:53:16;14.57;;;10.25;;
54823;SDS011;40724;53.196;5.980;2024-01-10T05:55:45;14.77;;;9.70;;
54823;SDS011;40724;53.196;5.980;2024-01-10T05:58:11;15.25;;;10.27;;
54823;SDS011;40724;53.196;5.980;2024-01-10T06:00:37;17.70;;;11.13;;
54823;SDS011;40724;53.196;5.980;2024-01-10T06:03:04;17.38;;;10.07;;
54823;SDS011;40724;53.196;5.980;2024-01-10T06:05:30;17.23;;;10.13;;
54823;SDS011;40724;53.196;5.980;2024-01-10T06:07:56;17.02;;;10.30;;
54823;SDS011;40724;53.196;5.980;2024-01-10T06:10:23;15.10;;;9.35;;
54823;SDS011;40724;53.196;5.980;2024-01-10T06:12:49;14.05;;;9.50;;
54823;SDS011;40724;53.196;5.980;2024-01-10T06:15:15;16.73;;;11.27;;
54823;SDS011;40724;53.196;5.980;2024-01-10T06:17:41;15.15;;;10.45;;
54823;SDS011;40724;53.196;5.980;2024-01-10T06:20:08;14.70;;;9.95;;
54823;SDS011;40724;53.196;5.980;2024-01-10T06:22:34;13.93;;;10.30;;
54823;SDS011;40724;53.196;5.980;2024-01-10T06:25:00;14.15;;;10.30;;
54823;SDS011;40724;53.196;5.980;2024-01-10T06:27:27;13.48;;;9.15;;
54823;SDS011;40724;53.196;5.980;2024-01-10T06:29:53;13.63;;;10.55;;
54823;SDS011;40724;53.196;5.980;2024-01-10T06:32:19;18.23;;;10.80;;
54823;SDS011;40724;53.196;5.980;2024-01-10T06:34:45;16.65;;;11.02;;
54823;SDS011;40724;53.196;5.980;2024-01-10T06:37:11;19.17;;;11.43;;
54823;SDS011;40724;53.196;5.980;2024-01-10T06:39:37;14.20;;;10.52;;
54823;SDS011;40724;53.196;5.980;2024-01-10T06:42:03;14.45;;;10.45;;
54823;SDS011;40724;53.196;5.980;2024-01-10T06:44:31;18.33;;;12.00;;
54823;SDS011;40724;53.196;5.980;2024-01-10T06:46:59;16.70;;;11.32;;
54823;SDS011;40724;53.196;5.980;2024-01-10T06:49:25;13.65;;;10.50;;
54823;SDS011;40724;53.196;5.980;2024-01-10T06:51:52;17.23;;;11.18;;
54823;SDS011;40724;53.196;5.980;2024-01-10T06:54:18;17.90;;;13.07;;
54823;SDS011;40724;53.196;5.980;2024-01-10T06:56:44;15.88;;;10.60;;
54823;SDS011;40724;53.196;5.980;2024-01-10T06:59:11;16.92;;;11.63;;
54823;SDS011;40724;53.196;5.980;2024-01-10T07:01:37;14.98;;;10.68;;
54823;SDS011;40724;53.196;5.980;2024-01-10T07:04:04;15.10;;;11.02;;
54823;SDS011;40724;53.196;5.980;2024-01-10T07:06:30;16.77;;;11.82;;
54823;SDS011;40724;53.196;5.980;2024-01-10T07:08:57;17.92;;;12.02;;
54823;SDS011;40724;53.196;5.980;2024-01-10T07:11:23;17.92;;;11.05;;
54823;SDS011;40724;53.196;5.980;2024-01-10T07:13:51;17.42;;;11.32;;
54823;SDS011;40724;53.196;5.980;2024-01-10T07:16:17;20.80;;;11.77;;
54823;SDS011;40724;53.196;5.980;2024-01-10T07:18:44;17.08;;;10.63;;
54823;SDS011;40724;53.196;5.980;2024-01-10T07:21:12;17.95;;;11.77;;
54823;SDS011;40724;53.196;5.980;2024-01-10T07:23:38;16.90;;;11.98;;
54823;SDS011;40724;53.196;5.980;2024-01-10T07:26:06;17.88;;;12.05;;
54823;SDS011;40724;53.196;5.980;2024-01-10T07:28:32;16.65;;;12.18;;
54823;SDS011;40724;53.196;5.980;2024-01-10T07:30:58;18.40;;;11.80;;
54823;SDS011;40724;53.196;5.980;2024-01-10T07:33:27;17.48;;;13.07;;
54823;SDS011;40724;53.196;5.980;2024-01-10T07:35:57;17.35;;;11.23;;
54823;SDS011;40724;53.196;5.980;2024-01-10T07:38:23;19.90;;;13.55;;
54823;SDS011;40724;53.196;5.980;2024-01-10T07:40:49;20.25;;;12.00;;
54823;SDS011;40724;53.196;5.980;2024-01-10T07:43:16;16.42;;;11.95;;
54823;SDS011;40724;53.196;5.980;2024-01-10T07:45:42;18.08;;;12.32;;
54823;SDS011;40724;53.196;5.980;2024-01-10T07:48:08;17.40;;;12.27;;
54823;SDS011;40724;53.196;5.980;2024-01-10T07:50:36;14.73;;;11.60;;
54823;SDS011;40724;53.196;5.980;2024-01-10T07:53:02;16.38;;;10.88;;
54823;SDS011;40724;53.196;5.980;2024-01-10T07:55:28;17.85;;;12.45;;
54823;SDS011;40724;53.196;5.980;2024-01-10T07:57:57;20.67;;;13.05;;
54823;SDS011;40724;53.196;5.980;2024-01-10T08:00:23;15.93;;;11.02;;
54823;SDS011;40724;53.196;5.980;2024-01-10T08:02:50;18.70;;;11.55;;
54823;SDS011;40724;53.196;5.980;2024-01-10T08:05:19;15.60;;;11.10;;
54823;SDS011;40724;53.196;5.980;2024-01-10T08:07:46;17.23;;;11.07;;
54823;SDS011;40724;53.196;5.980;2024-01-10T08:10:13;16.90;;;12.32;;
54823;SDS011;40724;53.196;5.980;2024-01-10T08:12:40;15.98;;;11.57;;
54823;SDS011;40724;53.196;5.980;2024-01-10T08:15:06;15.93;;;10.68;;
54823;SDS011;40724;53.196;5.980;2024-01-10T08:17:33;16.65;;;11.30;;
54823;SDS011;40724;53.196;5.980;2024-01-10T08:20:03;15.75;;;11.32;;
54823;SDS011;40724;53.196;5.980;2024-01-10T08:22:29;17.30;;;11.07;;
54823;SDS011;40724;53.196;5.980;2024-01-10T08:24:56;17.67;;;11.50;;
54823;SDS011;40724;53.196;5.980;2024-01-10T08:27:22;17.55;;;11.57;;
54823;SDS011;40724;53.196;5.980;2024-01-10T08:29:48;21.45;;;11.93;;
54823;SDS011;40724;53.196;5.980;2024-01-10T08:32:14;19.83;;;13.65;;
54823;SDS011;40724;53.196;5.980;2024-01-10T08:34:42;17.23;;;11.50;;
54823;SDS011;40724;53.196;5.980;2024-01-10T08:37:10;17.42;;;11.45;;
54823;SDS011;40724;53.196;5.980;2024-01-10T08:39:36;14.35;;;10.73;;
54823;SDS011;40724;53.196;5.980;2024-01-10T08:42:02;19.42;;;12.02;;
54823;SDS011;40724;53.196;5.980;2024-01-10T08:44:28;15.30;;;11.35;;
54823;SDS011;40724;53.196;5.980;2024-01-10T08:46:54;16.20;;;12.25;;
54823;SDS011;40724;53.196;5.980;2024-01-10T08:49:20;19.42;;;11.40;;
54823;SDS011;40724;53.196;5.980;2024-01-10T08:51:46;17.35;;;10.43;;
54823;SDS011;40724;53.196;5.980;2024-01-10T08:54:13;16.27;;;10.70;;
54823;SDS011;40724;53.196;5.980;2024-01-10T08:56:45;15.18;;;11.00;;
54823;SDS011;40724;53.196;5.980;2024-01-10T08:59:11;14.30;;;11.55;;
54823;SDS011;40724;53.196;5.980;2024-01-10T09:01:38;14.77;;;11.32;;
54823;SDS011;40724;53.196;5.980;2024-01-10T09:04:04;15.95;;;10.27;;
54823;SDS011;40724;53.196;5.980;2024-01-10T09:06:31;15.75;;;10.80;;
54823;SDS011;40724;53.196;5.980;2024-01-10T09:08:57;16.25;;;11.10;;
54823;SDS011;40724;53.196;5.980;2024-01-10T09:11:24;18.42;;;11.18;;
54823;SDS011;40724;53.196;5.980;2024-01-10T09:13:52;16.23;;;11.32;;
54823;SDS011;40724;53.196;5.980;2024-01-10T09:16:19;19.20;;;11.75;;
54823;SDS011;40724;53.196;5.980;2024-01-10T09:18:45;19.13;;;11.52;;
54823;SDS011;40724;53.196;5.980;2024-01-10T09:21:11;16.65;;;11.25;;
54823;SDS011;40724;53.196;5.980;2024-01-10T09:23:37;15.82;;;10.65;;
54823;SDS011;40724;53.196;5.980;2024-01-10T09:26:03;14.85;;;11.13;;
54823;SDS011;40724;53.196;5.980;2024-01-10T09:28:29;15.07;;;9.57;;
54823;SDS011;40724;53.196;5.980;2024-01-10T09:30:55;13.40;;;9.80;;
54823;SDS011;40724;53.196;5.980;2024-01-10T09:33:22;13.00;;;9.23;;
54823;SDS011;40724;53.196;5.980;2024-01-10T09:35:48;14.52;;;9.68;;
54823;SDS011;40724;53.196;5.980;2024-01-10T09:38:14;16.13;;;10.65;;
54823;SDS011;40724;53.196;5.980;2024-01-10T09:40:42;16.13;;;11.13;;
54823;SDS011;40724;53.196;5.980;2024-01-10T09:43:08;15.25;;;10.77;;
54823;SDS011;40724;53.196;5.980;2024-01-10T09:45:35;16.67;;;10.88;;
54823;SDS011;40724;53.196;5.980;2024-01-10T09:48:01;16.48;;;10.75;;
54823;SDS011;40724;53.196;5.980;2024-01-10T09:50:28;16.42;;;10.45;;
54823;SDS011;40724;53.196;5.980;2024-01-10T09:52:58;14.13;;;9.50;;
54823;SDS011;40724;53.196;5.980;2024-01-10T09:55:26;14.32;;;10.07;;
54823;SDS011;40724;53.196;5.980;2024-01-10T09:57:56;12.63;;;9.20;;
54823;SDS011;40724;53.196;5.980;2024-01-10T10:00:22;14.73;;;9.38;;
54823;SDS011;40724;53.196;5.980;2024-01-10T10:02:50;16.77;;;8.65;;
54823;SDS011;40724;53.196;5.980;2024-01-10T10:05:17;15.43;;;10.60;;
54823;SDS011;40724;53.196;5.980;2024-01-10T10:07:46;18.80;;;11.10;;
54823;SDS011;40724;53.196;5.980;2024-01-10T10:10:13;12.95;;;9.13;;
54823;SDS011;40724;53.196;5.980;2024-01-10T10:12:41;17.73;;;10.77;;
54823;SDS011;40724;53.196;5.980;2024-01-10T10:15:25;14.38;;;9.90;;
54823;SDS011;40724;53.196;5.980;2024-01-10T10:17:52;14.93;;;9.93;;
54823;SDS011;40724;53.196;5.980;2024-01-10T10:20:22;15.48;;;8.27;;
54823;SDS011;40724;53.196;5.980;2024-01-10T10:27:56;16.00;;;9.52;;
54823;SDS011;40724;53.196;5.980;2024-01-10T10:30:22;16.85;;;9.93;;
54823;SDS011;40724;53.196;5.980;2024-01-10T10:32:49;13.52;;;7.90;;
54823;SDS011;40724;53.196;5.980;2024-01-10T10:35:15;15.85;;;8.63;;
54823;SDS011;40724;53.196;5.980;2024-01-10T10:37:42;14.98;;;8.70;;
54823;SDS011;40724;53.196;5.980;2024-01-10T10:40:08;18.50;;;9.23;;
54823;SDS011;40724;53.196;5.980;2024-01-10T10:42:34;14.23;;;7.90;;
54823;SDS011;40724;53.196;5.980;2024-01-10T10:45:03;14.13;;;8.05;;
54823;SDS011;40724;53.196;5.980;2024-01-10T10:47:30;13.43;;;8.85;;
54823;SDS011;40724;53.196;5.980;2024-01-10T10:50:00;12.70;;;7.07;;
54823;SDS011;40724;53.196;5.980;2024-01-10T10:52:28;12.27;;;7.03;;
54823;SDS011;40724;53.196;5.980;2024-01-10T10:54:55;10.98;;;7.38;;
54823;SDS011;40724;53.196;5.980;2024-01-10T10:57:22;13.48;;;8.05;;
54823;SDS011;40724;53.196;5.980;2024-01-10T10:59:51;10.77;;;6.47;;
54823;SDS011;40724;53.196;5.980;2024-01-10T11:02:21;11.00;;;7.07;;
54823;SDS011;40724;53.196;5.980;2024-01-10T11:04:48;11.48;;;7.10;;
54823;SDS011;40724;53.196;5.980;2024-01-10T11:07:15;14.05;;;6.97;;
54823;SDS011;40724;53.196;5.980;2024-01-10T11:09:42;13.38;;;7.20;;
54823;SDS011;40724;53.196;5.980;2024-01-10T11:15:10;13.00;;;7.13;;
54823;SDS011;40724;53.196;5.980;2024-01-10T11:20:34;13.23;;;7.03;;
54823;SDS011;40724;53.196;5.980;2024-01-10T11:25:45;12.55;;;7.13;;
54823;SDS011;40724;53.196;5.980;2024-01-10T11:28:12;11.02;;;6.75;;
54823;SDS011;40724;53.196;5.980;2024-01-10T11:30:48;9.57;;;6.40;;
54823;SDS011;40724;53.196;5.980;2024-01-10T11:38:31;10.48;;;5.88;;
54823;SDS011;40724;53.196;5.980;2024-01-10T11:40:57;8.52;;;5.78;;
54823;SDS011;40724;53.196;5.980;2024-01-10T11:43:23;8.52;;;5.63;;
54823;SDS011;40724;53.196;5.980;2024-01-10T11:45:55;8.38;;;6.05;;
54823;SDS011;40724;53.196;5.980;2024-01-10T11:48:27;8.20;;;5.40;;
54823;SDS011;40724;53.196;5.980;2024-01-10T11:50:54;7.97;;;5.18;;
54823;SDS011;40724;53.196;5.980;2024-01-10T11:53:39;10.10;;;5.28;;
54823;SDS011;40724;53.196;5.980;2024-01-10T11:56:14;7.25;;;4.68;;
54823;SDS011;40724;53.196;5.980;2024-01-10T11:58:54;6.85;;;4.57;;
54823;SDS011;40724;53.196;5.980;2024-01-10T12:01:20;6.80;;;4.68;;
54823;SDS011;40724;53.196;5.980;2024-01-10T12:03:48;6.90;;;5.25;;
54823;SDS011;40724;53.196;5.980;2024-01-10T12:06:16;9.07;;;6.70;;
54823;SDS011;40724;53.196;5.980;2024-01-10T12:08:46;5.68;;;4.47;;
54823;SDS011;40724;53.196;5.980;2024-01-10T12:11:12;7.15;;;4.50;;
54823;SDS011;40724;53.196;5.980;2024-01-10T12:13:38;6.40;;;4.57;;
54823;SDS011;40724;53.196;5.980;2024-01-10T12:16:04;6.00;;;4.30;;
54823;SDS011;40724;53.196;5.980;2024-01-10T12:18:31;6.97;;;4.95;;
54823;SDS011;40724;53.196;5.980;2024-01-10T12:20:57;6.47;;;4.60;;
54823;SDS011;40724;53.196;5.980;2024-01-10T12:23:23;7.82;;;5.53;;
54823;SDS011;40724;53.196;5.980;2024-01-10T12:25:49;7.07;;;5.30;;
54823;SDS011;40724;53.196;5.980;2024-01-10T12:28:16;5.82;;;4.35;;
54823;SDS011;40724;53.196;5.980;2024-01-10T12:30:42;5.53;;;4.55;;
54823;SDS011;40724;53.196;5.980;2024-01-10T12:33:09;7.05;;;5.15;;
54823;SDS011;40724;53.196;5.980;2024-01-10T12:35:35;7.00;;;5.00;;
54823;SDS011;40724;53.196;5.980;2024-01-10T12:38:02;6.45;;;4.82;;
54823;SDS011;40724;53.196;5.980;2024-01-10T12:40:29;6.57;;;4.65;;
54823;SDS011;40724;53.196;5.980;2024-01-10T12:43:04;6.28;;;4.65;;
54823;SDS011;40724;53.196;5.980;2024-01-10T12:45:30;6.80;;;4.53;;
54823;SDS011;40724;53.196;5.980;2024-01-10T12:47:57;6.22;;;4.80;;
54823;SDS011;40724;53.196;5.980;2024-01-10T12:50:23;6.28;;;4.40;;
54823;SDS011;40724;53.196;5.980;2024-01-10T12:52:53;6.75;;;4.75;;
54823;SDS011;40724;53.196;5.980;2024-01-10T12:55:20;6.72;;;4.70;;
54823;SDS011;40724;53.196;5.980;2024-01-10T12:57:46;5.60;;;4.72;;
54823;SDS011;40724;53.196;5.980;2024-01-10T13:00:13;5.38;;;4.65;;
54823;SDS011;40724;53.196;5.980;2024-01-10T13:02:39;5.70;;;4.32;;
54823;SDS011;40724;53.196;5.980;2024-01-10T13:05:06;5.93;;;4.32;;
54823;SDS011;40724;53.196;5.980;2024-01-10T13:07:37;6.85;;;4.35;;
54823;SDS011;40724;53.196;5.980;2024-01-10T13:10:04;5.55;;;3.80;;
54823;SDS011;40724;53.196;5.980;2024-01-10T13:12:30;6.00;;;4.63;;
54823;SDS011;40724;53.196;5.980;2024-01-10T13:14:56;6.65;;;5.03;;
54823;SDS011;40724;53.196;5.980;2024-01-10T13:17:22;4.90;;;3.80;;
54823;SDS011;40724;53.196;5.980;2024-01-10T13:19:48;6.50;;;4.20;;
54823;SDS011;40724;53.196;5.980;2024-01-10T13:22:17;5.00;;;3.88;;
54823;SDS011;40724;53.196;5.980;2024-01-10T13:24:46;5.28;;;3.38;;
54823;SDS011;40724;53.196;5.980;2024-01-10T13:27:13;6.35;;;4.55;;
54823;SDS011;40724;53.196;5.980;2024-01-10T13:29:39;4.68;;;3.65;;
54823;SDS011;40724;53.196;5.980;2024-01-10T13:32:06;5.20;;;4.22;;
54823;SDS011;40724;53.196;5.980;2024-01-10T13:34:35;6.35;;;3.83;;
54823;SDS011;40724;53.196;5.980;2024-01-10T13:37:01;5.63;;;4.15;;
54823;SDS011;40724;53.196;5.980;2024-01-10T13:39:29;5.25;;;3.63;;
54823;SDS011;40724;53.196;5.980;2024-01-10T13:41:55;5.55;;;3.80;;
54823;SDS011;40724;53.196;5.980;2024-01-10T13:44:21;5.20;;;3.45;;
54823;SDS011;40724;53.196;5.980;2024-01-10T13:46:48;5.97;;;4.20;;
54823;SDS011;40724;53.196;5.980;2024-01-10T13:49:15;5.78;;;3.78;;
54823;SDS011;40724;53.196;5.980;2024-01-10T13:51:41;4.95;;;3.65;;
54823;SDS011;40724;53.196;5.980;2024-01-10T13:54:09;5.30;;;4.32;;
54823;SDS011;40724;53.196;5.980;2024-01-10T13:56:35;4.95;;;3.90;;
54823;SDS011;40724;53.196;5.980;2024-01-10T13:59:04;5.35;;;3.72;;
54823;SDS011;40724;53.196;5.980;2024-01-10T14:01:31;6.40;;;4.75;;
54823;SDS011;40724;53.196;5.980;2024-01-10T14:03:57;5.80;;;4.05;;
54823;SDS011;40724;53.196;5.980;2024-01-10T14:06:24;5.28;;;4.32;;
54823;SDS011;40724;53.196;5.980;2024-01-10T14:08:50;6.25;;;4.68;;
54823;SDS011;40724;53.196;5.980;2024-01-10T14:11:16;8.23;;;4.47;;
54823;SDS011;40724;53.196;5.980;2024-01-10T14:13:42;5.38;;;4.05;;
54823;SDS011;40724;53.196;5.980;2024-01-10T14:16:09;4.80;;;3.50;;
54823;SDS011;40724;53.196;5.980;2024-01-10T14:18:36;8.18;;;4.60;;
54823;SDS011;40724;53.196;5.980;2024-01-10T14:21:03;5.63;;;4.35;;
54823;SDS011;40724;53.196;5.980;2024-01-10T14:23:30;5.13;;;4.03;;
54823;SDS011;40724;53.196;5.980;2024-01-10T14:25:56;6.03;;;4.30;;
54823;SDS011;40724;53.196;5.980;2024-01-10T14:28:22;6.60;;;4.22;;
54823;SDS011;40724;53.196;5.980;2024-01-10T14:30:48;7.03;;;4.70;;
54823;SDS011;40724;53.196;5.980;2024-01-10T14:33:14;5.93;;;4.18;;
54823;SDS011;40724;53.196;5.980;2024-01-10T14:35:43;7.03;;;5.07;;
54823;SDS011;40724;53.196;5.980;2024-01-10T14:38:09;7.03;;;4.88;;
54823;SDS011;40724;53.196;5.980;2024-01-10T14:40:36;6.72;;;5.15;;
54823;SDS011;40724;53.196;5.980;2024-01-10T14:43:02;8.98;;;5.18;;
54823;SDS011;40724;53.196;5.980;2024-01-10T14:45:28;8.82;;;5.30;;
54823;SDS011;40724;53.196;5.980;2024-01-10T14:47:54;9.13;;;6.10;;
54823;SDS011;40724;53.196;5.980;2024-01-10T14:50:20;7.75;;;5.00;;